Time;durP1;ratioP1;P1;durP2;ratioP2;P2;SDS_P1;SDS_P2;PMS_P1;PMS_P2;Temp;Humidity;BMP_temperature;BMP_pressure;BME280_temperature;BME280_humidity;BME280_pressure;Samples;Min_cycle;Max_cycle;Signal;HPM_P1;HPM_P2
2024/02/02 00:02:05;;;;;;;6.63;3.47;;;;;;;1.61;75.67;97224.53;5031933;28;20037;-57
2024/02/02 00:04:31;;;;;;;4.47;3.20;;;;;;;1.57;75.67;97218.97;5032268;28;20038;-58
2024/02/02 00:06:57;;;;;;;3.92;3.28;;;;;;;1.54;75.86;97222.06;5031126;28;20045;-59
2024/02/02 00:09:23;;;;;;;5.72;3.75;;;;;;;1.50;75.08;97215.69;5030326;28;20045;-57
2024/02/02 00:11:49;;;;;;;6.35;3.72;;;;;;;1.43;76.11;97213.22;5032010;28;20459;-58
2024/02/02 00:14:15;;;;;;;6.40;3.50;;;;;;;1.38;76.01;97217.53;5030746;28;20135;-58
2024/02/02 00:16:41;;;;;;;6.18;3.47;;;;;;;1.36;75.44;97215.97;5031314;28;20045;-57
2024/02/02 00:19:07;;;;;;;5.32;3.83;;;;;;;1.40;76.09;97216.28;5030390;28;20046;-60
2024/02/02 00:21:33;;;;;;;6.20;3.28;;;;;;;1.34;75.22;97207.56;5031863;28;20503;-58
2024/02/02 00:23:58;;;;;;;5.28;3.97;;;;;;;1.34;75.35;97209.41;5030466;28;20048;-57
2024/02/02 00:26:25;;;;;;;6.05;3.70;;;;;;;1.42;75.34;97213.47;5031904;28;20384;-57
2024/02/02 00:28:51;;;;;;;5.03;3.35;;;;;;;1.45;75.09;97216.41;5031736;28;20073;-58
2024/02/02 00:31:21;;;;;;;5.28;3.33;;;;;;;1.46;75.11;97220.59;5030377;28;20487;-58
2024/02/02 00:33:50;;;;;;;5.00;3.75;;;;;;;1.49;75.01;97209.69;5031407;28;20060;-58
2024/02/02 00:36:16;;;;;;;7.30;3.92;;;;;;;1.49;74.34;97207.06;5031214;28;20103;-59
2024/02/02 00:38:42;;;;;;;6.57;3.88;;;;;;;1.43;74.48;97202.00;5030980;28;20061;-59
2024/02/02 00:41:07;;;;;;;6.00;3.80;;;;;;;1.36;75.05;97205.53;5030139;28;20556;-59
2024/02/02 00:43:34;;;;;;;5.82;3.33;;;;;;;1.30;75.11;97193.41;5030298;28;20045;-59
2024/02/02 00:46:00;;;;;;;5.90;3.35;;;;;;;1.30;75.02;97192.63;5031553;28;20038;-58
2024/02/02 00:48:26;;;;;;;5.75;3.63;;;;;;;1.31;74.95;97191.59;5013582;28;20045;-58
2024/02/02 00:50:55;;;;;;;6.68;3.80;;;;;;;1.34;75.09;97188.50;5030378;28;20563;-57
2024/02/02 00:53:21;;;;;;;4.03;3.10;;;;;;;1.30;75.08;97177.75;5031564;28;20143;-57
2024/02/02 00:55:46;;;;;;;5.75;3.58;;;;;;;1.24;75.00;97178.69;5031447;28;20511;-56
2024/02/02 00:58:12;;;;;;;8.00;4.53;;;;;;;1.19;75.51;97178.56;5030228;28;20041;-57
2024/02/02 01:00:38;;;;;;;6.05;3.58;;;;;;;1.24;75.29;97183.91;5031469;28;20099;-57
2024/02/02 01:03:04;;;;;;;6.75;3.80;;;;;;;1.17;75.01;97182.44;5031374;28;20045;-58
2024/02/02 01:05:31;;;;;;;7.45;5.13;;;;;;;1.20;74.81;97182.75;5031139;28;20502;-59
2024/02/02 01:07:57;;;;;;;7.32;3.90;;;;;;;1.23;75.53;97182.28;5031062;28;20072;-58
2024/02/02 01:10:23;;;;;;;5.88;4.47;;;;;;;1.21;75.10;97173.13;5031261;28;20037;-60
2024/02/02 01:12:49;;;;;;;7.72;4.60;;;;;;;1.23;75.07;97177.06;5029914;28;20419;-58
2024/02/02 01:15:16;;;;;;;7.38;4.80;;;;;;;1.17;75.01;97172.78;5029726;28;20048;-58
2024/02/02 01:17:45;;;;;;;7.50;4.72;;;;;;;1.18;75.13;97160.50;5030970;28;20045;-59
2024/02/02 01:20:15;;;;;;;7.95;5.00;;;;;;;1.21;75.06;97166.09;5031182;28;20049;-58
2024/02/02 01:22:41;;;;;;;;;;;;;;;1.19;75.58;97162.13;5033967;28;20124;-59
2024/02/02 01:25:09;;;;;;;7.80;5.10;;;;;;;1.21;75.44;97162.69;5034850;28;20027;-58
2024/02/02 01:27:35;;;;;;;7.82;4.93;;;;;;;1.16;75.16;97155.53;5017247;28;20525;-57
2024/02/02 01:30:02;;;;;;;7.88;4.68;;;;;;;1.09;75.36;97158.28;5034697;28;20041;-58
2024/02/02 01:32:30;;;;;;;8.13;4.80;;;;;;;1.12;75.26;97157.03;5035042;28;20140;-58
2024/02/02 01:34:55;;;;;;;6.88;4.70;;;;;;;1.10;75.01;97157.25;5033694;28;20130;-58
2024/02/02 01:37:21;;;;;;;7.43;4.57;;;;;;;1.09;75.15;97150.47;5033426;28;20120;-60
2024/02/02 01:39:47;;;;;;;9.10;4.32;;;;;;;1.07;75.36;97149.91;5034208;28;20072;-58
2024/02/02 01:42:13;;;;;;;6.85;4.18;;;;;;;1.08;75.35;97159.31;5033403;28;20060;-59
2024/02/02 01:44:39;;;;;;;7.15;4.05;;;;;;;1.05;75.31;97146.72;5034820;28;20050;-57
2024/02/02 01:47:04;;;;;;;7.43;3.92;;;;;;;1.02;75.31;97135.94;5033462;28;20515;-59
2024/02/02 01:49:30;;;;;;;5.85;3.80;;;;;;;1.03;75.54;97140.94;5033251;28;20045;-58
2024/02/02 01:51:56;;;;;;;4.18;3.05;;;;;;;1.03;75.71;97140.13;5027966;28;20049;-59
2024/02/02 01:54:22;;;;;;;6.25;3.50;;;;;;;1.04;75.53;97146.97;5034649;28;20053;-58
2024/02/02 01:56:48;;;;;;;5.45;3.40;;;;;;;1.00;75.54;97125.75;5034211;28;20037;-58
2024/02/02 01:59:14;;;;;;;6.28;3.05;;;;;;;1.06;75.70;97135.28;5032011;28;20161;-58
2024/02/02 02:01:43;;;;;;;4.43;2.95;;;;;;;1.06;75.02;97130.06;5033398;28;20511;-58
2024/02/02 02:04:09;;;;;;;3.95;3.05;;;;;;;1.11;75.11;97134.56;5034548;28;20528;-58
2024/02/02 02:06:35;;;;;;;7.97;3.28;;;;;;;1.11;75.13;97121.53;5033009;28;20046;-58
2024/02/02 02:09:02;;;;;;;5.53;3.33;;;;;;;1.05;75.25;97127.66;5032655;28;20059;-59
2024/02/02 02:11:28;;;;;;;6.07;3.28;;;;;;;0.97;74.94;97121.00;5032826;28;20091;-58
2024/02/02 02:13:54;;;;;;;6.82;3.20;;;;;;;0.93;75.89;97116.47;5034185;28;20053;-58
2024/02/02 02:16:21;;;;;;;4.43;3.15;;;;;;;0.93;75.52;97119.88;5016241;28;20056;-58
2024/02/02 02:18:47;;;;;;;4.18;3.00;;;;;;;0.92;76.10;97125.34;5016071;28;20053;-57
2024/02/02 02:21:23;;;;;;;6.03;3.47;;;;;;;0.83;76.13;97120.47;5032970;28;20414;-59
2024/02/02 02:23:49;;;;;;;3.90;3.03;;;;;;;0.83;76.55;97123.06;5011089;28;20129;-58
2024/02/02 02:26:15;;;;;;;5.88;3.20;;;;;;;0.83;76.57;97117.84;5012751;28;20423;-58
2024/02/02 02:28:41;;;;;;;6.28;3.30;;;;;;;0.86;76.54;97127.03;5014153;28;20070;-59
2024/02/02 02:31:11;;;;;;;5.30;3.53;;;;;;;0.87;76.71;97131.22;5015169;28;20050;-59
2024/02/02 02:33:40;;;;;;;4.18;3.00;;;;;;;0.88;76.62;97138.00;5031795;28;20495;-56
2024/02/02 02:36:07;;;;;;;8.43;3.40;;;;;;;0.81;76.83;97138.16;5032220;28;20065;-58
2024/02/02 02:38:33;;;;;;;4.85;2.88;;;;;;;0.84;77.45;97131.69;5033310;28;20058;-58
2024/02/02 02:41:00;;;;;;;6.80;3.45;;;;;;;0.85;77.01;97128.03;5033737;28;20458;-60
2024/02/02 02:43:27;;;;;;;4.72;3.15;;;;;;;0.77;77.22;97129.22;5033627;28;20137;-56
2024/02/02 02:45:54;;;;;;;4.05;3.35;;;;;;;0.81;77.50;97114.69;5033354;28;20096;-59
2024/02/02 02:48:20;;;;;;;4.60;3.25;;;;;;;0.81;77.53;97106.06;5033263;28;20071;-57
2024/02/02 02:50:45;;;;;;;4.78;3.50;;;;;;;0.78;77.43;97114.34;5031965;28;20034;-55
2024/02/02 02:53:11;;;;;;;8.48;3.80;;;;;;;0.73;77.54;97111.63;5032140;28;20049;-58
2024/02/02 02:55:37;;;;;;;5.53;3.45;;;;;;;0.75;77.75;97118.22;5033173;28;20052;-59
2024/02/02 02:58:03;;;;;;;9.13;3.88;;;;;;;0.78;77.37;97120.34;5033310;28;20050;-59
2024/02/02 03:00:31;;;;;;;7.25;3.53;;;;;;;0.84;77.62;97123.88;5033020;28;20391;-57
2024/02/02 03:03:00;;;;;;;5.80;3.88;;;;;;;0.82;78.28;97131.13;5033018;28;20092;-59
2024/02/02 03:05:28;;;;;;;6.63;3.88;;;;;;;0.78;78.15;97122.19;5015180;28;20037;-58
2024/02/02 03:07:54;;;;;;;6.35;3.85;;;;;;;0.76;78.54;97116.38;5033065;28;20065;-57
2024/02/02 03:10:29;;;;;;;5.05;3.65;;;;;;;0.87;78.03;97118.97;5031653;28;20116;-60
2024/02/02 03:12:55;;;;;;;7.60;4.07;;;;;;;0.92;77.96;97115.69;5031616;28;20450;-59
2024/02/02 03:15:21;;;;;;;5.60;3.80;;;;;;;0.95;77.58;97117.84;5014968;28;20091;-57
2024/02/02 03:17:48;;;;;;;6.22;3.72;;;;;;;0.93;77.80;97113.88;5031670;28;20049;-57
2024/02/02 03:20:15;;;;;;;6.07;3.90;;;;;;;0.97;77.97;97121.00;5032732;28;20446;-58
2024/02/02 03:22:40;;;;;;;8.02;3.75;;;;;;;1.01;77.79;97116.91;5032663;28;20041;-57
2024/02/02 03:25:07;;;;;;;5.80;3.78;;;;;;;1.02;77.80;97117.69;5014905;28;20134;-59
2024/02/02 03:27:34;;;;;;;7.60;4.28;;;;;;;0.96;77.53;97108.97;5031336;28;20041;-58
2024/02/02 03:29:59;;;;;;;6.70;4.25;;;;;;;0.97;77.64;97121.00;5031208;28;20054;-60
2024/02/02 03:32:25;;;;;;;7.78;4.05;;;;;;;0.90;77.92;97128.16;5031330;28;20045;-60
2024/02/02 03:34:51;;;;;;;8.50;4.80;;;;;;;0.94;77.96;97125.88;5014418;28;20420;-59
2024/02/02 03:37:18;;;;;;;6.43;4.10;;;;;;;0.98;78.28;97119.97;5031738;28;20634;-59
2024/02/02 03:39:45;;;;;;;7.53;4.65;;;;;;;0.95;78.13;97119.66;5064691;28;20210;-59
2024/02/02 03:42:14;;;;;;;6.25;4.20;;;;;;;0.98;78.32;97119.97;5035008;28;20060;-57
2024/02/02 03:44:40;;;;;;;6.55;4.13;;;;;;;1.03;78.10;97120.09;5013798;28;20210;-57
2024/02/02 03:47:06;;;;;;;7.97;4.32;;;;;;;1.00;77.81;97112.72;5029787;28;20231;-59
2024/02/02 03:49:33;;;;;;;10.15;4.72;;;;;;;0.97;77.94;97117.59;5014610;28;20049;-58
2024/02/02 03:52:07;;;;;;;10.25;4.80;;;;;;;0.95;78.24;97117.03;5031988;28;20038;-60
2024/02/02 03:54:33;;;;;;;7.97;4.78;;;;;;;0.98;77.89;97113.97;5014149;28;20046;-59
2024/02/02 03:57:00;;;;;;;8.38;4.25;;;;;;;0.99;78.17;97123.38;5011049;28;20424;-60
2024/02/02 03:59:26;;;;;;;8.68;4.68;;;;;;;1.02;78.00;97115.88;5012550;28;20521;-58
2024/02/02 04:01:52;;;;;;;8.40;4.40;;;;;;;1.09;77.78;97129.59;5017133;28;20041;-58
2024/02/02 04:04:18;;;;;;;8.75;4.57;;;;;;;1.14;78.02;97121.84;5032088;28;20095;-58
2024/02/02 04:06:43;;;;;;;7.43;4.63;;;;;;;1.15;77.80;97122.66;5032128;28;20075;-60
2024/02/02 04:09:10;;;;;;;7.57;4.43;;;;;;;1.06;78.04;97122.22;5009943;28;20044;-59
2024/02/02 04:11:36;;;;;;;6.30;4.30;;;;;;;1.07;78.19;97123.81;5011106;28;20042;-60
2024/02/02 04:14:02;;;;;;;6.45;4.00;;;;;;;1.00;78.24;97115.31;5010985;28;20374;-59
2024/02/02 04:16:28;;;;;;;8.45;4.88;;;;;;;1.01;78.16;97114.28;5014116;28;20072;-57
2024/02/02 04:18:54;;;;;;;8.57;4.55;;;;;;;1.07;78.33;97126.41;5031496;28;20098;-59
2024/02/02 04:21:20;;;;;;;7.53;4.20;;;;;;;1.15;77.87;97120.03;5031621;28;20041;-58
2024/02/02 04:23:46;;;;;;;6.50;4.63;;;;;;;1.13;77.64;97112.44;5031458;28;20072;-57
2024/02/02 04:26:11;;;;;;;6.50;4.22;;;;;;;1.26;77.59;97115.78;5022169;28;20059;-60
2024/02/02 04:28:37;;;;;;;6.10;4.30;;;;;;;1.28;77.84;97116.38;5011826;28;20065;-58
2024/02/02 04:31:03;;;;;;;6.82;4.10;;;;;;;1.27;77.36;97115.56;5010509;28;20547;-60
2024/02/02 04:33:29;;;;;;;8.40;4.50;;;;;;;1.20;77.42;97114.91;5027002;28;20049;-59
2024/02/02 04:35:54;;;;;;;7.43;4.10;;;;;;;1.26;77.72;97113.19;5031444;28;20414;-61
2024/02/02 04:38:20;;;;;;;8.45;4.95;;;;;;;1.31;77.31;97108.84;5029845;28;20049;-59
2024/02/02 04:40:46;;;;;;;7.38;4.65;;;;;;;1.36;76.99;97113.38;5031233;28;20053;-59
2024/02/02 04:43:12;;;;;;;7.40;4.47;;;;;;;1.36;76.96;97110.78;5029636;28;20045;-59
2024/02/02 04:45:38;;;;;;;8.45;4.72;;;;;;;1.39;77.11;97115.53;5031129;28;20065;-58
2024/02/02 04:48:05;;;;;;;6.30;4.22;;;;;;;1.38;76.70;97103.47;5029500;28;20068;-59
2024/02/02 04:50:31;;;;;;;6.60;4.43;;;;;;;1.36;77.02;97103.72;5030151;28;20033;-61
2024/02/02 04:52:57;;;;;;;6.15;4.47;;;;;;;1.35;77.80;97117.81;5031190;28;20553;-58
2024/02/02 04:55:23;;;;;;;11.80;5.35;;;;;;;1.31;78.20;97114.06;5032680;28;20506;-59
2024/02/02 04:57:49;;;;;;;7.10;4.15;;;;;;;1.34;78.06;97118.03;5033877;28;20037;-59
2024/02/02 05:00:15;;;;;;;8.88;5.10;;;;;;;1.31;77.63;97121.13;5026748;28;20033;-60
2024/02/02 05:02:40;;;;;;;7.57;4.13;;;;;;;1.31;78.15;97121.91;5033983;28;20050;-57
2024/02/02 05:05:06;;;;;;;10.63;4.97;;;;;;;1.41;77.96;97120.50;5033794;28;20112;-57
2024/02/02 05:07:34;;;;;;;14.18;8.13;;;;;;;1.44;77.50;97125.25;5019987;28;20045;-59
2024/02/02 05:10:00;;;;;;;8.25;4.90;;;;;;;1.48;77.88;97124.56;5015513;28;20050;-65
2024/02/02 05:12:26;;;;;;;9.07;5.25;;;;;;;1.50;77.65;97127.75;5014107;28;20120;-62
2024/02/02 05:14:52;;;;;;;10.75;4.65;;;;;;;1.45;77.63;97129.47;5015020;28;20062;-59
2024/02/02 05:17:18;;;;;;;9.63;4.53;;;;;;;1.42;77.14;97112.44;5021490;28;20065;-61
2024/02/02 05:19:43;;;;;;;8.70;4.30;;;;;;;1.41;76.96;97123.91;5034895;28;20053;-60
2024/02/02 05:22:09;;;;;;;7.53;4.55;;;;;;;1.44;77.27;97114.81;5034464;28;20124;-60
2024/02/02 05:24:35;;;;;;;7.03;4.32;;;;;;;1.42;77.61;97125.50;5035265;28;20046;-60
2024/02/02 05:27:01;;;;;;;8.32;4.93;;;;;;;1.36;78.25;97126.44;5020055;28;20443;-60
2024/02/02 05:29:26;;;;;;;10.15;5.15;;;;;;;1.39;78.83;97123.34;5031174;28;20135;-61
2024/02/02 05:31:52;;;;;;;7.53;4.53;;;;;;;1.45;79.70;97122.41;5015267;28;20042;-58
2024/02/02 05:34:18;;;;;;;8.82;4.45;;;;;;;1.50;80.18;97124.31;5022973;28;20502;-58
2024/02/02 05:36:44;;;;;;;9.40;4.93;;;;;;;1.47;80.56;97122.97;5034604;28;20123;-59
2024/02/02 05:39:10;;;;;;;9.25;4.47;;;;;;;1.51;80.99;97125.91;5034766;28;20064;-59
2024/02/02 05:41:36;;;;;;;11.88;4.88;;;;;;;1.47;81.01;97122.97;5016609;28;20521;-59
2024/02/02 05:44:02;;;;;;;8.90;4.47;;;;;;;1.46;81.40;97128.44;5023539;28;20110;-58
2024/02/02 05:46:28;;;;;;;6.03;4.10;;;;;;;1.32;80.71;97128.72;5039908;28;20111;-60
2024/02/02 05:48:54;;;;;;;8.05;4.25;;;;;;;1.30;80.76;97122.94;5040382;28;20509;-58
2024/02/02 05:51:19;;;;;;;5.75;3.80;;;;;;;1.31;80.88;97129.72;5024350;28;20056;-60
2024/02/02 05:53:45;;;;;;;5.57;3.80;;;;;;;1.35;81.28;97130.88;5016691;28;20046;-55
2024/02/02 05:56:11;;;;;;;7.95;4.25;;;;;;;1.42;80.93;97135.16;5036415;28;20537;-59
2024/02/02 05:58:37;;;;;;;9.45;4.25;;;;;;;1.38;80.77;97134.81;5035749;28;20188;-59
2024/02/02 06:01:03;;;;;;;7.63;3.90;;;;;;;1.42;80.97;97132.53;5044384;28;20082;-60
2024/02/02 06:03:28;;;;;;;7.35;4.18;;;;;;;1.51;80.48;97144.19;5032876;28;20049;-59
2024/02/02 06:05:55;;;;;;;6.25;3.95;;;;;;;1.56;80.52;97131.22;5051640;28;20049;-58
2024/02/02 06:08:21;;;;;;;5.25;3.65;;;;;;;1.54;79.44;97139.28;5032405;28;20072;-58
2024/02/02 06:10:46;;;;;;;7.78;3.72;;;;;;;1.61;79.73;97133.13;5031004;28;20049;-58
2024/02/02 06:13:12;;;;;;;8.75;3.60;;;;;;;1.58;79.26;97137.78;5031892;28;20045;-57
2024/02/02 06:15:38;;;;;;;5.43;3.70;;;;;;;1.61;79.27;97136.53;5032086;28;20071;-54
2024/02/02 06:18:04;;;;;;;8.45;3.35;;;;;;;1.43;78.72;97108.00;5033436;28;20041;-59
2024/02/02 06:20:30;;;;;;;6.03;4.03;;;;;;;1.75;79.36;97144.88;5046087;28;20422;-58
2024/02/02 06:22:56;;;;;;;5.85;3.58;;;;;;;1.71;78.25;97138.53;5051726;28;20049;-57
2024/02/02 06:25:21;;;;;;;5.78;3.97;;;;;;;1.74;78.85;97141.47;5038161;28;20043;-58
2024/02/02 06:27:47;;;;;;;7.22;3.83;;;;;;;1.79;78.79;97143.34;5031614;28;20041;-59
2024/02/02 06:30:13;;;;;;;8.10;3.75;;;;;;;1.73;78.08;97154.75;5033142;28;20112;-57
2024/02/02 06:32:40;;;;;;;7.05;3.95;;;;;;;1.75;78.83;97145.66;5033062;28;20048;-60
2024/02/02 06:35:06;;;;;;;11.48;3.95;;;;;;;1.81;78.69;97155.16;5041824;28;20406;-59
2024/02/02 06:37:32;;;;;;;9.35;4.18;;;;;;;1.93;78.97;97152.47;5053413;28;20460;-57
2024/02/02 06:39:58;;;;;;;7.40;4.25;;;;;;;1.92;77.58;97165.78;5041561;28;20057;-60
2024/02/02 06:42:27;;;;;;;7.75;4.05;;;;;;;1.97;77.55;97160.63;5031365;28;20065;-57
2024/02/02 06:44:54;;;;;;;9.75;4.10;;;;;;;2.10;77.67;97157.72;5032799;28;20077;-59
2024/02/02 06:47:21;;;;;;;7.60;3.65;;;;;;;2.18;77.46;97157.34;5032211;28;20044;-60
2024/02/02 06:49:46;;;;;;;8.23;3.72;;;;;;;2.24;77.28;97158.22;5032866;28;20052;-60
2024/02/02 06:52:16;;;;;;;8.45;3.90;;;;;;;2.30;76.32;97164.31;5015860;28;20038;-58
2024/02/02 06:54:43;;;;;;;10.88;4.07;;;;;;;2.32;76.75;97173.47;5029155;28;20041;-57
2024/02/02 06:57:09;;;;;;;7.75;4.18;;;;;;;2.20;76.43;97157.88;5026047;28;20076;-58
2024/02/02 06:59:35;;;;;;;8.27;4.40;;;;;;;2.32;76.44;97168.25;5018473;28;20051;-60
2024/02/02 07:02:32;;;;;;;9.90;3.97;;;;;;;2.35;75.95;97170.38;5032703;28;20040;-61
2024/02/02 07:04:59;;;;;;;9.48;4.28;;;;;;;2.42;75.70;97172.84;5032176;28;20057;-59
2024/02/02 07:07:25;;;;;;;7.18;3.65;;;;;;;2.28;74.68;97167.94;5021235;28;20048;-60
2024/02/02 07:09:55;;;;;;;7.88;4.15;;;;;;;2.37;75.42;97176.19;5031498;28;20410;-59
2024/02/02 07:12:48;;;;;;;7.28;3.70;;;;;;;2.40;74.70;97178.31;5051446;28;20041;-60
2024/02/02 07:15:18;;;;;;;9.20;3.85;;;;;;;2.49;74.13;97179.50;5037297;28;20046;-60
2024/02/02 07:17:45;;;;;;;6.53;3.58;;;;;;;2.48;73.15;97177.91;5025904;28;20474;-61
2024/02/02 07:20:24;;;;;;;5.45;2.92;;;;;;;2.51;73.23;97181.88;5030356;28;20148;-61
2024/02/02 07:22:58;;;;;;;5.90;2.90;;;;;;;2.30;73.32;97190.47;5029584;28;20129;-62
2024/02/02 07:25:25;;;;;;;6.28;3.40;;;;;;;2.16;73.37;97188.13;5025273;28;20057;-61
2024/02/02 07:28:05;;;;;;;9.00;3.38;;;;;;;2.28;74.73;97191.47;5032458;28;20045;-61
2024/02/02 07:30:43;;;;;;;5.78;3.28;;;;;;;2.30;73.57;97190.47;5029749;28;20072;-61
2024/02/02 07:33:18;;;;;;;11.23;4.20;;;;;;;2.18;74.70;97200.97;5016979;28;20053;-61
2024/02/02 07:35:44;;;;;;;8.35;3.50;;;;;;;2.16;74.16;97192.56;5028035;28;20048;-59
2024/02/02 07:38:24;;;;;;;7.40;3.45;;;;;;;2.17;73.83;97199.38;5031056;28;20519;-60
2024/02/02 07:40:58;;;;;;;;;;;;;;;2.02;74.26;97207.75;5015803;28;20046;-59
2024/02/02 07:43:42;;;;;;;4.50;3.10;;;;;;;1.96;73.94;97212.09;5012222;28;19948;-58
2024/02/02 07:46:08;;;;;;;12.00;4.05;;;;;;;1.92;73.40;97213.63;5026201;28;20046;-60
2024/02/02 07:48:35;;;;;;;5.55;3.47;;;;;;;1.89;73.81;97215.91;5010628;28;20038;-60
2024/02/02 07:51:01;;;;;;;8.85;3.30;;;;;;;1.78;73.45;97220.16;5010055;28;20084;-60
2024/02/02 07:53:28;;;;;;;6.68;3.20;;;;;;;1.82;73.29;97216.03;5012060;28;20721;-61
2024/02/02 07:55:53;;;;;;;3.40;2.28;;;;;;;1.56;71.29;97220.00;5036007;28;20445;-59
2024/02/02 07:58:22;;;;;;;7.10;3.45;;;;;;;1.45;71.62;97223.44;5032026;28;20049;-59
2024/02/02 08:00:51;;;;;;;7.47;3.42;;;;;;;1.49;71.24;97222.75;5048366;28;20044;-60
2024/02/02 08:03:18;;;;;;;8.18;3.83;;;;;;;1.52;70.76;97227.50;5051925;28;20490;-60
2024/02/02 08:05:44;;;;;;;8.07;3.47;;;;;;;1.48;70.57;97228.22;5032037;28;20507;-61
2024/02/02 08:08:10;;;;;;;5.82;3.47;;;;;;;1.55;69.88;97234.88;5030532;28;20041;-59
2024/02/02 08:10:41;;;;;;;8.75;3.85;;;;;;;1.78;69.65;97246.25;5030572;28;20041;-58
2024/02/02 08:13:11;;;;;;;8.50;4.38;;;;;;;1.87;69.11;97237.03;5030657;28;20084;-58
2024/02/02 08:15:37;;;;;;;7.97;3.75;;;;;;;1.89;68.98;97232.38;5045867;28;20094;-60
2024/02/02 08:18:05;;;;;;;8.65;3.13;;;;;;;1.89;67.91;97242.81;5035180;28;20521;-60
2024/02/02 08:20:31;;;;;;;6.20;2.90;;;;;;;1.96;68.24;97247.91;5026820;28;20041;-60
2024/02/02 08:22:57;;;;;;;7.60;3.00;;;;;;;1.94;67.43;97249.94;5012467;28;20068;-58
2024/02/02 08:25:23;;;;;;;5.00;2.65;;;;;;;1.89;66.94;97242.03;5031400;28;20115;-57
2024/02/02 08:27:49;;;;;;;7.65;2.90;;;;;;;2.09;66.66;97245.00;5031329;28;20132;-57
2024/02/02 08:30:15;;;;;;;4.15;2.40;;;;;;;2.05;64.79;97259.56;5018619;28;20476;-57
2024/02/02 08:32:42;;;;;;;3.80;2.00;;;;;;;1.86;64.45;97279.88;5011809;28;20433;-58
2024/02/02 08:35:08;;;;;;;12.57;7.60;;;;;;;1.90;64.10;97261.91;5034400;28;20045;-61
2024/02/02 08:37:34;;;;;;;5.30;2.63;;;;;;;2.01;63.32;97271.50;5049649;28;20043;-60
2024/02/02 08:40:00;;;;;;;3.85;2.10;;;;;;;2.04;63.35;97269.22;5050871;28;20092;-59
2024/02/02 08:42:27;;;;;;;4.10;1.40;;;;;;;1.93;61.93;97283.13;5049967;28;20064;-59
2024/02/02 08:44:55;;;;;;;7.80;2.28;;;;;;;1.83;60.18;97279.53;5031178;28;20043;-59
2024/02/02 08:47:21;;;;;;;6.35;2.58;;;;;;;1.79;60.40;97279.19;5014234;28;20081;-59
2024/02/02 08:49:55;;;;;;;8.20;3.15;;;;;;;1.70;59.08;97285.81;5034744;28;20045;-57
2024/02/02 08:52:43;;;;;;;5.43;2.15;;;;;;;1.70;58.26;97278.75;5036259;28;20076;-59
2024/02/02 08:55:42;;;;;;;2.63;1.60;;;;;;;1.58;57.66;97288.44;5022944;28;20045;-60
2024/02/02 08:58:30;;;;;;;5.25;2.28;;;;;;;1.33;58.35;97299.19;5011435;28;20124;-59
2024/02/02 09:00:57;;;;;;;5.18;1.80;;;;;;;1.17;58.00;97286.81;5012937;28;20134;-59
2024/02/02 09:03:44;;;;;;;11.70;4.82;;;;;;;1.22;58.94;97292.94;5029902;28;20038;-60
2024/02/02 09:06:39;;;;;;;4.47;2.50;;;;;;;1.34;61.50;97291.09;5031121;28;20128;-58
2024/02/02 09:09:08;;;;;;;6.00;2.58;;;;;;;1.39;62.28;97297.47;5028962;28;20095;-58
2024/02/02 09:11:34;;;;;;;6.32;2.20;;;;;;;1.44;62.85;97295.75;5030053;28;20102;-60
2024/02/02 09:14:04;;;;;;;3.80;1.92;;;;;;;1.51;63.16;97291.19;5030880;28;20044;-59
2024/02/02 09:16:55;;;;;;;3.45;1.67;;;;;;;1.49;62.46;97290.63;5029470;28;20106;-58
2024/02/02 09:19:30;;;;;;;2.88;1.55;;;;;;;1.63;61.52;97312.06;5030616;28;20535;-59
2024/02/02 09:22:00;;;;;;;4.97;2.53;;;;;;;1.79;61.16;97306.13;5030847;28;20057;-58
2024/02/02 09:24:30;;;;;;;3.90;2.33;;;;;;;1.86;61.92;97305.19;5036792;28;20447;-58
2024/02/02 09:26:57;;;;;;;5.60;2.20;;;;;;;1.97;60.91;97296.50;5050916;28;20052;-60
2024/02/02 09:29:23;;;;;;;9.88;2.50;;;;;;;2.21;60.88;97294.63;5027333;28;20025;-58
2024/02/02 09:31:49;;;;;;;2.92;1.60;;;;;;;2.19;59.66;97299.28;5029328;28;20104;-58
2024/02/02 09:34:18;;;;;;;8.13;1.98;;;;;;;2.35;60.25;97295.09;5035185;28;20037;-57
2024/02/02 09:36:44;;;;;;;4.90;1.92;;;;;;;2.38;58.99;97294.63;5033385;28;20102;-61
2024/02/02 09:39:46;;;;;;;4.05;1.40;;;;;;;2.19;58.27;97299.28;5045584;28;20073;-59
2024/02/02 09:42:35;;;;;;;2.65;1.40;;;;;;;2.03;57.17;97312.06;5014012;28;20132;-57
2024/02/02 09:45:07;;;;;;;2.83;1.55;;;;;;;1.91;55.59;97303.47;5013139;28;20208;-57
2024/02/02 09:48:12;;;;;;;2.22;1.30;;;;;;;1.90;53.77;97324.59;5013323;28;20042;-58
2024/02/02 09:51:10;;;;;;;4.78;2.15;;;;;;;1.87;55.70;97325.84;5047506;28;20534;-55
2024/02/02 09:54:03;;;;;;;3.92;1.92;;;;;;;1.61;57.66;97329.78;5019707;28;20045;-58
2024/02/02 09:56:51;;;;;;;3.38;2.00;;;;;;;1.27;57.71;97323.59;5051714;28;20413;-59
2024/02/02 09:59:22;;;;;;;2.90;2.10;;;;;;;1.03;58.88;97315.75;5010591;28;20559;-59
2024/02/02 10:02:13;;;;;;;7.30;2.00;;;;;;;0.99;58.21;97317.22;5014504;28;20492;-56
2024/02/02 10:05:00;;;;;;;6.93;2.40;;;;;;;1.01;57.68;97324.81;5022743;28;20077;-58
2024/02/02 10:07:48;;;;;;;4.65;2.10;;;;;;;1.10;56.64;97328.69;5032717;28;20079;-58
2024/02/02 10:10:46;;;;;;;4.70;2.40;;;;;;;1.38;57.11;97332.41;5046630;28;20032;-60
2024/02/02 10:13:28;;;;;;;6.00;3.38;;;;;;;1.57;56.65;97333.88;5052743;28;20041;-58
2024/02/02 10:16:15;;;;;;;4.32;2.10;;;;;;;1.76;56.08;97327.47;5035638;28;20056;-58
2024/02/02 10:18:47;;;;;;;6.30;1.45;;;;;;;1.71;54.53;97319.53;5012242;28;20046;-56
2024/02/02 10:21:49;;;;;;;3.85;1.50;;;;;;;1.59;54.46;97321.38;5026073;28;20046;-56
2024/02/02 10:24:35;;;;;;;3.97;1.50;;;;;;;1.49;54.61;97324.56;5032755;28;20124;-62
2024/02/02 10:27:11;;;;;;;3.10;1.45;;;;;;;1.33;53.93;97336.50;4999786;28;20119;-60
2024/02/02 10:30:05;;;;;;;3.55;1.10;;;;;;;1.10;52.85;97331.28;5033116;28;20647;-60
2024/02/02 10:32:54;;;;;;;4.45;1.33;;;;;;;1.13;52.84;97333.44;5021433;28;20038;-61
2024/02/02 10:35:36;;;;;;;3.00;1.67;;;;;;;1.20;53.83;97326.28;5033165;28;20087;-61
2024/02/02 10:38:20;;;;;;;4.22;1.75;;;;;;;1.15;53.80;97323.59;5011888;28;20045;-61
2024/02/02 10:41:01;;;;;;;1.85;1.33;;;;;;;0.97;53.75;97327.09;5004128;28;20183;-60
2024/02/02 10:43:53;;;;;;;5.32;1.42;;;;;;;0.84;54.69;97330.69;5023468;28;20116;-59
2024/02/02 10:46:43;;;;;;;2.45;1.30;;;;;;;0.64;53.54;97335.44;5039617;28;20053;-60
2024/02/02 10:49:25;;;;;;;4.00;1.70;;;;;;;0.68;52.70;97349.63;5031096;28;20449;-57
2024/02/02 10:51:54;;;;;;;5.18;1.48;;;;;;;0.66;53.16;97344.63;5029123;28;20045;-60
2024/02/02 10:54:52;;;;;;;3.97;1.50;;;;;;;0.71;51.87;97358.78;5021997;28;20045;-60
2024/02/02 10:58:07;;;;;;;4.97;1.30;;;;;;;0.73;50.05;97348.94;5033669;28;20055;-59
2024/02/02 11:00:42;;;;;;;1.27;1.10;;;;;;;0.81;50.50;97346.78;5029831;28;20131;-58
2024/02/02 11:03:15;;;;;;;3.38;1.40;;;;;;;0.80;50.08;97350.44;5019763;28;20050;-58
2024/02/02 11:05:53;;;;;;;7.50;1.30;;;;;;;1.01;49.48;97356.13;4998291;28;20046;-57
2024/02/02 11:08:21;;;;;;;5.05;1.30;;;;;;;1.21;49.77;97350.59;5015290;28;20091;-58
2024/02/02 11:11:01;;;;;;;7.30;1.20;;;;;;;1.18;48.77;97356.25;5023980;28;20037;-59
2024/02/02 11:13:32;;;;;;;2.75;1.08;;;;;;;1.16;49.26;97353.09;5032699;28;20042;-58
2024/02/02 11:16:02;;;;;;;2.22;1.40;;;;;;;1.11;49.16;97359.75;5026044;28;20041;-61
2024/02/02 11:18:38;;;;;;;3.40;1.10;;;;;;;1.08;48.34;97355.00;5032947;28;20085;-59
2024/02/02 11:21:38;;;;;;;2.80;1.38;;;;;;;1.22;48.77;97345.13;5043059;28;20075;-59
2024/02/02 11:24:10;;;;;;;3.10;1.30;;;;;;;1.11;47.22;97358.97;5052827;28;20117;-62
2024/02/02 11:26:54;;;;;;;4.95;1.55;;;;;;;1.28;48.07;97357.28;5034587;28;20058;-59
2024/02/02 11:29:37;;;;;;;2.70;1.30;;;;;;;1.46;47.98;97364.19;5011638;28;20080;-60
2024/02/02 11:32:39;;;;;;;3.00;1.30;;;;;;;1.39;47.67;97357.50;5011417;28;20053;-59
2024/02/02 11:35:29;;;;;;;3.05;1.50;;;;;;;1.45;47.43;97365.22;5016408;28;20048;-60
2024/02/02 11:38:09;;;;;;;3.33;1.20;;;;;;;1.30;47.08;97357.84;5032678;28;20099;-61
2024/02/02 11:40:35;;;;;;;5.25;1.55;;;;;;;1.07;48.57;97366.47;5038333;28;20056;-62
2024/02/02 11:43:02;;;;;;;5.47;1.27;;;;;;;1.30;49.47;97364.88;5035866;28;20037;-61
2024/02/02 11:45:33;;;;;;;2.78;1.50;;;;;;;1.57;49.42;97360.78;5025067;28;20049;-58
2024/02/02 11:48:05;;;;;;;4.72;1.67;;;;;;;1.52;48.51;97363.28;4998718;28;20092;-57
2024/02/02 11:50:58;;;;;;;5.13;1.40;;;;;;;1.43;49.20;97359.44;5014703;28;20045;-60
2024/02/02 11:53:36;;;;;;;3.10;1.45;;;;;;;1.35;50.17;97360.56;5026613;28;20038;-58
2024/02/02 11:56:28;;;;;;;5.97;1.80;;;;;;;1.38;50.88;97361.13;5015940;28;20447;-60
2024/02/02 11:59:05;;;;;;;3.67;1.45;;;;;;;1.24;51.73;97365.81;5013744;28;20635;-60